Aeroporto :
LOGIN :

Iscrizione | Disclaimer

   EN    FR    IT 

 










Sommario :    VFR   VFR Marginale   IFR   IFR Intensivo   IFR Molto Intensivo
Visibilità : 
Base nubi : 
>= 8 km
>= 3000ft
5 / 8 km
1000 / 3000 ft
1500m / 5 km
500 / 1000 ft
800 / 1500m
200 / 500 ft
< 800m
< 200 ft
Simboli :   Temporali  Nebbia  Neve Forte  Precipitazioni Forti  Vento > 20 kt
SIGMETs :   Varie  Temporali  Ghiacco  Turbolenza  Onda orograficha  Ceneri Vulcaniche






- Altitudine del aeroporto : 485 ft
- Codice IATA : QSA


LELL - Sabadell

ULTIMO METAR :
  • 080830Z AUTO VRB01KT CAVOK 16/08 Q1026

METARs OBSOLETI :
  • 080800Z AUTO VRB02KT 9999 FEW059 14/09 Q1026
  • 080730Z AUTO VRB02KT 9999 BKN058 13/09 Q1026
  • 080700Z AUTO VRB01KT CAVOK 12/09 Q1025
  • 080630Z AUTO 29002KT CAVOK 10/08 Q1025

TAF TAF LELL
Valido dal 08 a 09 ore il 09 a 09 ore UTC


080800Z 0809/0909 VRB03KT 9999 FEW030 TX19/0812Z TN09/0906Z
TEMPO 0810/0818 17008KT



MetMap, La meteo Aeronautica in un colpo d'occhio ! - Copyright ORBIFLY Dicembre 2007 - Disclaimer

ORBIFLY MET'MAP TEAM :

Programmazione e sviluppo : Alexandra Zaïnal
Concezione : Baudouin d'Aumeries
Aiuto per la programmazione : Marc-Olivier Méhu
Supporto tecnico e logistico : Manuel Goepfert
Aiuto per la traduzione : Arnaldo La Scala

Contatto : metmap@orbifly.com




FONTI E CREDITI :

   NOAA